Inglewood, CA (90301)

5:06 AM PDT on October 24, 2014 (GMT -0700)
Westchester | Change Station
CLOSE
Current Station
Personal Weather Station
Location: Los Angeles, CA
Elevation: 148 ft
Nearby Weather Stations

Elev 148 ft 33.96 °N, 118.39 °W | Updated 5 seconds ago

Clear
Clear
55.8 °F
Feels Like 55.8 °F
N
0.0
Wind Variable Wind from North
Gusts 0.0 mph

Today
High -- | Low -- °F
--% Chance of Precip.
Yesterday
High -- | Low -- °F
Precip. -- in
7:05 AM 6:08 PM
New Moon, 0% visible
Pressure 29.95 in
Visibility 9.0 miles
Clouds Clear
Dew Point 56 °F
Humidity 99%
Rainfall 0.00 in
Snow Depth Not available.
UV 0 out of 12
Pollen 4.10 out of 12
Ozone Good
Flu Activity Sporadic
METAR KHHR 241153Z AUTO 00000KT 9SM CLR 17/14 A2995 RMK AO2 SLP141 T01720144 10200 20167 55005

More Conditions Fewer Conditions

Pressure 29.95 in
Visibility 9.0 miles
Clouds Clear
Dew Point 56 °F
Humidity 99%
Rainfall 0.00 in
Snow Depth Not available.
UV 0 out of 12
Pollen 4.10 out of 12
Ozone Good
Flu Activity Sporadic
METAR KHHR 241153Z AUTO 00000KT 9SM CLR 17/14 A2995 RMK AO2 SLP141 T01720144 10200 20167 55005

More Conditions Fewer Conditions

10-Day Weather Forecast

Almanac

Astronomy

Oct. 24, 2014 Rise Set
Actual Time 7:05 AM PDT 6:08 PM PDT
Civil Twilight 6:40 AM PDT 6:34 PM PDT
Nautical Twilight 6:11 AM PDT 7:03 PM PDT
Astronomical Twilight 5:42 AM PDT 7:32 PM PDT
Moon 7:48 AM PDT 6:54 PM PDT
Length of Visible Light 11h 53m
Length of Day
11h 02m
Tomorrow will be 1m 56s shorter.
New Moon, 0% of the Moon is Illuminated
Today
New Moon
Oct 30
First Quarter
Nov 6
Full
Nov 14
Last Quarter
Nov 22
New

Today's Extremes

State Highs State Lows

Community

WunderPhotos

Upload Photos

1,764,528 photos uploaded!

Nearby

Air Quality

  Air Quality AQ Index Pollutant
Yesterday Good
OZONE
Current Good
OZONE
Friday Good
PM10
Friday Good
OZONE
Friday Good
CO
Friday Good
NO2

Snow Depth

Station Depth Elevation
Virginia Lakes Ridge 0 in 9200 ft
Leavitt Lake 1 in 9400 ft
Sonora Pass 0 in 8800 ft
Leavitt Meadows 1 in 7200 ft
Summit Meadow 1 in 9122 ft

Earthquake Activity

City Distance Mag. Time & Date
Brea, California 25 miles 2.9 3:35 PM PDT
2014-10-23
Brea, California 26 miles 2.8 3:34 PM PDT
2014-10-23
Corona, California 39 miles 2.5 1:09 PM PDT
2014-10-23
Solvang, California 108 miles 2.6 5:35 PM PDT
2014-10-22
Minimum magnitude displayed is 2.5.

Coastal Water Temperatures

Place Temperature
Santa Monica Pier 69.1 °F
Los Angeles, CA 69.1 °F
La Jolla, CA 71.1 °F

Nearby Weather Stations